Time;durP1;ratioP1;P1;durP2;ratioP2;P2;SDS_P1;SDS_P2;PMS_P1;PMS_P2;Temp;Humidity;BMP_temperature;BMP_pressure;BME280_temperature;BME280_humidity;BME280_pressure;Samples;Min_cycle;Max_cycle;Signal;HPM_P1;HPM_P2
2023/03/20 00:01:28;;;;;;;15.05;9.77;;;;;;;;;;5120228;27;20027;-74
2023/03/20 00:03:55;;;;;;;15.57;11.93;;;;;;;;;;5055287;27;20022;-74
2023/03/20 00:06:22;;;;;;;22.08;15.40;;;;;;;;;;5119612;27;20074;-74
2023/03/20 00:08:50;;;;;;;18.35;11.73;;;;;;;;;;5088615;27;20118;-74
2023/03/20 00:11:29;;;;;;;14.40;11.35;;;;;;;;;;5012548;28;20032;-74
2023/03/20 00:14:09;;;;;;;14.52;10.63;;;;;;;;;;5042929;27;20037;-74
2023/03/20 00:16:36;;;;;;;15.30;10.82;;;;;;;;;;5061268;27;20021;-75
2023/03/20 00:19:03;;;;;;;14.20;9.55;;;;;;;;;;5060113;27;20019;-74
2023/03/20 00:21:30;;;;;;;15.68;10.65;;;;;;;;;;5117130;27;20477;-73
2023/03/20 00:23:56;;;;;;;13.60;9.73;;;;;;;;;;5096911;27;20535;-74
2023/03/20 00:26:27;;;;;;;18.40;11.40;;;;;;;;;;5049796;28;20036;-73
2023/03/20 00:28:53;;;;;;;12.20;9.82;;;;;;;;;;5050670;27;20056;-73
2023/03/20 00:31:32;;;;;;;12.27;9.45;;;;;;;;;;5064378;27;20092;-73
2023/03/20 00:34:03;;;;;;;14.40;10.52;;;;;;;;;;5060316;27;20029;-73
2023/03/20 00:36:29;;;;;;;13.40;9.63;;;;;;;;;;5110084;27;20015;-70
2023/03/20 00:38:58;;;;;;;14.27;9.63;;;;;;;;;;5100937;27;20026;-72
2023/03/20 00:41:27;;;;;;;18.58;9.70;;;;;;;;;;5135562;27;20018;-74
2023/03/20 00:43:59;;;;;;;11.38;8.85;;;;;;;;;;5120200;27;20532;-73
2023/03/20 00:46:25;;;;;;;12.55;8.70;;;;;;;;;;5136542;27;20072;-73
2023/03/20 00:48:52;;;;;;;10.38;7.78;;;;;;;;;;5066737;27;20474;-74
2023/03/20 00:51:18;;;;;;;12.55;8.30;;;;;;;;;;5131593;27;20032;-74
2023/03/20 00:53:44;;;;;;;11.07;8.18;;;;;;;;;;5090143;27;20147;-74
2023/03/20 00:56:30;;;;;;;11.85;7.50;;;;;;;;;;5029536;28;20118;-74
2023/03/20 00:58:57;;;;;;;12.80;7.60;;;;;;;;;;5038292;28;20512;-74
2023/03/20 01:01:23;;;;;;;11.48;7.30;;;;;;;;;;5031453;28;20021;-74
2023/03/20 01:03:49;;;;;;;9.55;7.25;;;;;;;;;;5049040;28;20025;-74
2023/03/20 01:06:15;;;;;;;14.50;6.50;;;;;;;;;;5048852;28;20025;-75
2023/03/20 01:08:41;;;;;;;7.70;5.75;;;;;;;;;;5049067;28;20086;-75
2023/03/20 01:11:10;;;;;;;11.30;6.80;;;;;;;;;;5048981;28;20028;-76
2023/03/20 01:13:37;;;;;;;10.63;6.57;;;;;;;;;;5049124;28;20074;-74
2023/03/20 01:16:04;;;;;;;6.82;5.72;;;;;;;;;;5048154;28;20086;-74
2023/03/20 01:18:30;;;;;;;9.80;6.68;;;;;;;;;;5048966;28;20077;-74
2023/03/20 01:20:56;;;;;;;9.75;7.30;;;;;;;;;;5048659;28;20029;-73
2023/03/20 01:23:22;;;;;;;9.88;6.57;;;;;;;;;;5049342;28;20021;-74
2023/03/20 01:25:48;;;;;;;10.40;6.80;;;;;;;;;;5048769;28;20049;-73
2023/03/20 01:28:23;;;;;;;7.38;5.28;;;;;;;;;;5048399;28;20417;-74
2023/03/20 01:30:50;;;;;;;8.40;6.40;;;;;;;;;;5071428;27;20024;-75
2023/03/20 01:33:17;;;;;;;9.98;5.20;;;;;;;;;;5056191;27;20032;-75
2023/03/20 01:35:45;;;;;;;6.57;4.97;;;;;;;;;;5090467;27;20032;-75
2023/03/20 01:38:17;;;;;;;9.20;6.40;;;;;;;;;;5105751;27;20059;-73
2023/03/20 01:40:43;;;;;;;9.30;5.93;;;;;;;;;;5134998;27;20102;-74
2023/03/20 01:43:13;;;;;;;8.90;5.05;;;;;;;;;;5153331;27;20023;-73
2023/03/20 01:45:42;;;;;;;9.63;6.40;;;;;;;;;;5129899;27;20015;-73
2023/03/20 01:48:16;;;;;;;6.25;4.40;;;;;;;;;;5095844;27;20105;-75
2023/03/20 01:50:42;;;;;;;8.02;5.63;;;;;;;;;;5102445;27;20019;-76
2023/03/20 01:53:28;;;;;;;7.53;4.47;;;;;;;;;;5061676;27;20049;-75
2023/03/20 01:55:55;;;;;;;9.98;5.03;;;;;;;;;;5059251;28;20100;-74
2023/03/20 01:58:25;;;;;;;7.22;5.10;;;;;;;;;;5049060;28;20478;-73
2023/03/20 02:00:52;;;;;;;7.90;5.38;;;;;;;;;;5048592;28;20033;-73
2023/03/20 02:03:19;;;;;;;10.55;7.20;;;;;;;;;;5048590;28;20152;-72
2023/03/20 02:05:45;;;;;;;8.43;6.35;;;;;;;;;;5048465;28;20025;-73
2023/03/20 02:08:11;;;;;;;8.57;7.03;;;;;;;;;;5047909;28;20025;-72
2023/03/20 02:10:37;;;;;;;9.27;5.55;;;;;;;;;;5075708;27;20161;-73
2023/03/20 02:13:03;;;;;;;10.45;5.90;;;;;;;;;;5047977;28;20029;-74
2023/03/20 02:15:30;;;;;;;13.70;9.48;;;;;;;;;;5066195;27;20484;-74
2023/03/20 02:17:56;;;;;;;11.40;8.07;;;;;;;;;;5047463;28;20029;-73
2023/03/20 02:20:31;;;;;;;19.92;11.15;;;;;;;;;;5103529;27;20024;-74
2023/03/20 02:23:10;;;;;;;15.75;10.65;;;;;;;;;;5120733;27;20017;-73
2023/03/20 02:25:36;;;;;;;8.90;6.20;;;;;;;;;;5046921;28;20032;-73
2023/03/20 02:28:20;;;;;;;11.82;5.65;;;;;;;;;;5048929;28;20041;-73
2023/03/20 02:30:49;;;;;;;10.10;7.13;;;;;;;;;;5051493;28;20028;-73
2023/03/20 02:33:15;;;;;;;13.60;9.30;;;;;;;;;;5051432;28;20025;-74
2023/03/20 02:35:47;;;;;;;10.25;6.50;;;;;;;;;;5052035;28;20024;-74
2023/03/20 02:38:13;;;;;;;12.68;8.60;;;;;;;;;;5051499;28;20025;-74
2023/03/20 02:40:47;;;;;;;9.90;6.88;;;;;;;;;;5051386;27;20036;-77
2023/03/20 02:43:32;;;;;;;21.80;15.82;;;;;;;;;;5033538;28;20055;-74
2023/03/20 02:46:11;;;;;;;19.63;13.20;;;;;;;;;;5051459;28;20056;-74
2023/03/20 02:48:43;;;;;;;20.08;14.82;;;;;;;;;;5050996;28;20025;-74
2023/03/20 02:51:14;;;;;;;22.33;16.55;;;;;;;;;;5051246;28;20375;-74
2023/03/20 02:53:59;;;;;;;22.52;17.23;;;;;;;;;;5051446;28;20028;-74
2023/03/20 02:56:25;;;;;;;22.20;17.38;;;;;;;;;;5051264;28;20029;-73
2023/03/20 02:58:57;;;;;;;23.08;17.08;;;;;;;;;;5051066;28;20448;-73
2023/03/20 03:01:23;;;;;;;22.58;17.83;;;;;;;;;;5051190;28;20037;-73
2023/03/20 03:03:51;;;;;;;26.40;18.77;;;;;;;;;;5051153;28;20025;-72
2023/03/20 03:06:21;;;;;;;22.52;16.77;;;;;;;;;;5050952;28;20089;-73
2023/03/20 03:08:51;;;;;;;15.77;10.43;;;;;;;;;;5050528;28;20021;-74
2023/03/20 03:11:17;;;;;;;19.25;12.88;;;;;;;;;;5040770;28;20033;-73
2023/03/20 03:13:49;;;;;;;20.38;11.93;;;;;;;;;;5031386;28;20414;-74
2023/03/20 03:16:18;;;;;;;18.17;12.95;;;;;;;;;;5050752;28;20554;-73
2023/03/20 03:18:45;;;;;;;18.88;13.23;;;;;;;;;;5050465;28;20036;-74
2023/03/20 03:21:12;;;;;;;20.45;14.45;;;;;;;;;;5033627;28;20021;-73
2023/03/20 03:23:43;;;;;;;19.92;14.55;;;;;;;;;;5051071;28;20044;-73
2023/03/20 03:26:12;;;;;;;20.23;15.35;;;;;;;;;;5050625;28;20021;-74
2023/03/20 03:28:44;;;;;;;19.73;13.98;;;;;;;;;;5050682;27;20033;-73
2023/03/20 03:31:15;;;;;;;16.95;11.30;;;;;;;;;;5050691;28;20032;-73
2023/03/20 03:33:43;;;;;;;22.73;15.18;;;;;;;;;;5050623;27;20056;-74
2023/03/20 03:36:16;;;;;;;17.58;12.15;;;;;;;;;;5050772;28;20040;-73
2023/03/20 03:39:05;;;;;;;19.70;14.00;;;;;;;;;;5050369;28;20036;-74
2023/03/20 03:41:38;;;;;;;25.42;18.02;;;;;;;;;;5050361;28;20050;-74
2023/03/20 03:44:05;;;;;;;15.82;12.00;;;;;;;;;;5050337;28;20069;-73
2023/03/20 03:46:34;;;;;;;18.42;11.63;;;;;;;;;;5050062;28;20487;-73
2023/03/20 03:49:01;;;;;;;13.57;10.50;;;;;;;;;;5050042;28;20032;-72
2023/03/20 03:51:29;;;;;;;13.40;10.07;;;;;;;;;;5050342;28;20041;-74
2023/03/20 03:54:00;;;;;;;9.50;6.95;;;;;;;;;;5050395;28;20056;-74
2023/03/20 03:56:27;;;;;;;6.53;5.53;;;;;;;;;;5050191;28;20064;-74
2023/03/20 03:58:55;;;;;;;9.70;5.88;;;;;;;;;;5049678;28;20033;-74
2023/03/20 04:01:23;;;;;;;9.07;4.65;;;;;;;;;;5050394;28;20036;-74
2023/03/20 04:03:50;;;;;;;5.63;3.95;;;;;;;;;;5050111;28;20032;-74
2023/03/20 04:06:16;;;;;;;7.65;4.53;;;;;;;;;;5049934;28;20031;-73
2023/03/20 04:08:43;;;;;;;5.00;3.50;;;;;;;;;;5049840;28;20104;-74
2023/03/20 04:11:15;;;;;;;7.55;5.63;;;;;;;;;;5040749;28;20029;-75
2023/03/20 04:13:41;;;;;;;10.07;7.47;;;;;;;;;;5030255;28;20063;-74
2023/03/20 04:16:12;;;;;;;20.50;14.10;;;;;;;;;;5030020;28;20086;-73
2023/03/20 04:18:38;;;;;;;;;;;;;;;;;;5030161;28;20561;-73
2023/03/20 04:21:05;;;;;;;15.80;9.05;;;;;;;;;;5030406;28;19947;-74
2023/03/20 04:23:31;;;;;;;12.65;9.27;;;;;;;;;;5029984;28;20018;-74
2023/03/20 04:25:58;;;;;;;10.50;6.90;;;;;;;;;;5029622;28;20018;-75
2023/03/20 04:28:24;;;;;;;7.88;4.53;;;;;;;;;;5029678;28;20204;-74
2023/03/20 04:30:57;;;;;;;6.30;3.08;;;;;;;;;;5030042;28;20586;-76
2023/03/20 04:33:23;;;;;;;4.53;2.72;;;;;;;;;;5030010;28;20051;-74
2023/03/20 04:35:49;;;;;;;4.40;2.75;;;;;;;;;;5029870;28;20025;-75
2023/03/20 04:38:16;;;;;;;7.25;2.65;;;;;;;;;;5029386;28;20052;-75
2023/03/20 04:40:43;;;;;;;3.67;2.35;;;;;;;;;;5029556;28;20387;-75
2023/03/20 04:43:09;;;;;;;4.43;2.47;;;;;;;;;;5029792;28;20032;-76
2023/03/20 04:45:35;;;;;;;4.32;2.25;;;;;;;;;;5029692;28;20045;-77
2023/03/20 04:48:01;;;;;;;3.38;2.53;;;;;;;;;;5029254;28;20475;-76
2023/03/20 04:50:27;;;;;;;3.90;2.40;;;;;;;;;;5029473;28;20411;-76
2023/03/20 04:52:53;;;;;;;5.82;2.65;;;;;;;;;;5029325;28;20026;-75
2023/03/20 04:55:19;;;;;;;6.55;2.88;;;;;;;;;;5029397;28;20066;-76
2023/03/20 04:57:45;;;;;;;4.13;2.33;;;;;;;;;;5029728;28;20036;-77
2023/03/20 05:00:12;;;;;;;5.95;2.55;;;;;;;;;;5029358;28;20101;-73
2023/03/20 05:02:38;;;;;;;2.95;2.13;;;;;;;;;;5037621;28;20021;-75
2023/03/20 05:05:04;;;;;;;4.95;2.70;;;;;;;;;;5049087;28;20101;-73
2023/03/20 05:07:31;;;;;;;3.17;2.33;;;;;;;;;;5048566;28;20082;-74
2023/03/20 05:09:57;;;;;;;3.08;2.38;;;;;;;;;;5049026;28;20506;-75
2023/03/20 05:12:23;;;;;;;4.47;2.42;;;;;;;;;;5030037;28;20053;-76
2023/03/20 05:14:49;;;;;;;3.47;2.50;;;;;;;;;;5037775;28;20391;-76
2023/03/20 05:17:18;;;;;;;3.65;2.80;;;;;;;;;;5048542;28;20041;-75
2023/03/20 05:19:44;;;;;;;4.90;2.88;;;;;;;;;;5048749;28;20035;-73
2023/03/20 05:22:11;;;;;;;5.40;3.20;;;;;;;;;;5048709;28;20049;-73
2023/03/20 05:24:37;;;;;;;4.03;2.83;;;;;;;;;;5048650;28;20021;-73
2023/03/20 05:27:03;;;;;;;4.63;3.00;;;;;;;;;;5048506;28;20044;-72
2023/03/20 05:29:29;;;;;;;8.70;3.92;;;;;;;;;;5049929;28;20081;-73
2023/03/20 05:31:55;;;;;;;4.60;3.42;;;;;;;;;;5048713;28;20202;-74
2023/03/20 05:34:21;;;;;;;5.68;3.20;;;;;;;;;;5048765;28;20074;-75
2023/03/20 05:36:47;;;;;;;6.90;2.95;;;;;;;;;;5048503;28;20059;-73
2023/03/20 05:39:13;;;;;;;5.32;3.13;;;;;;;;;;5048355;28;20475;-74
2023/03/20 05:41:39;;;;;;;5.68;3.15;;;;;;;;;;5048785;28;20035;-74
2023/03/20 05:44:05;;;;;;;4.32;2.92;;;;;;;;;;5048610;28;20029;-74
2023/03/20 05:46:31;;;;;;;3.67;2.67;;;;;;;;;;5048641;28;20027;-74
2023/03/20 05:48:57;;;;;;;4.30;2.90;;;;;;;;;;5048452;28;20032;-74
2023/03/20 05:51:23;;;;;;;4.13;2.75;;;;;;;;;;5049398;28;20032;-74
2023/03/20 05:53:49;;;;;;;4.15;3.03;;;;;;;;;;5050767;28;20025;-74
2023/03/20 05:56:15;;;;;;;4.97;2.92;;;;;;;;;;5052473;28;20040;-75
2023/03/20 05:58:41;;;;;;;4.07;2.30;;;;;;;;;;5051063;28;20050;-75
2023/03/20 06:01:08;;;;;;;4.63;2.35;;;;;;;;;;5052685;28;20390;-75
2023/03/20 06:03:34;;;;;;;4.80;2.83;;;;;;;;;;5055076;28;20036;-75
2023/03/20 06:06:00;;;;;;;4.53;2.88;;;;;;;;;;5052782;28;20017;-74
2023/03/20 06:08:26;;;;;;;5.53;3.20;;;;;;;;;;5052873;27;20104;-74
2023/03/20 06:10:52;;;;;;;4.85;2.85;;;;;;;;;;5073752;27;20048;-72
2023/03/20 06:13:18;;;;;;;3.92;3.00;;;;;;;;;;5051945;27;20065;-71
2023/03/20 06:15:44;;;;;;;3.72;2.50;;;;;;;;;;5069837;27;20092;-74
2023/03/20 06:18:10;;;;;;;4.18;2.40;;;;;;;;;;5051095;28;20032;-72
2023/03/20 06:20:36;;;;;;;3.97;2.80;;;;;;;;;;5139048;27;20034;-74
2023/03/20 06:23:02;;;;;;;8.63;4.40;;;;;;;;;;5084074;27;20023;-74
2023/03/20 06:25:28;;;;;;;5.50;2.65;;;;;;;;;;5041588;27;20104;-74
2023/03/20 06:27:54;;;;;;;7.55;4.30;;;;;;;;;;5051357;28;20494;-75
2023/03/20 06:30:20;;;;;;;2.20;2.00;;;;;;;;;;5033544;28;20514;-74
2023/03/20 06:32:47;;;;;;;4.50;2.63;;;;;;;;;;5051268;28;20077;-75
2023/03/20 06:35:13;;;;;;;5.32;3.30;;;;;;;;;;5051647;28;20115;-74
2023/03/20 06:37:40;;;;;;;4.40;2.55;;;;;;;;;;5051366;28;20037;-74
2023/03/20 06:40:07;;;;;;;3.40;2.72;;;;;;;;;;5051585;28;20053;-77
2023/03/20 06:42:33;;;;;;;3.47;2.15;;;;;;;;;;5051471;28;20426;-72
2023/03/20 06:44:59;;;;;;;5.55;2.63;;;;;;;;;;5050893;28;20090;-73
2023/03/20 06:47:25;;;;;;;3.25;2.58;;;;;;;;;;5050829;28;20376;-74
2023/03/20 06:49:51;;;;;;;4.22;2.72;;;;;;;;;;5050899;28;20025;-74
2023/03/20 06:52:21;;;;;;;5.53;2.75;;;;;;;;;;5051135;28;20033;-74
2023/03/20 06:54:47;;;;;;;6.35;2.17;;;;;;;;;;5051043;28;20108;-74
2023/03/20 06:57:13;;;;;;;4.57;2.60;;;;;;;;;;5050381;28;20032;-74
2023/03/20 06:59:39;;;;;;;6.38;2.90;;;;;;;;;;5050446;28;20074;-76
2023/03/20 07:02:06;;;;;;;4.18;2.67;;;;;;;;;;5039230;28;20495;-75
2023/03/20 07:04:32;;;;;;;3.80;2.83;;;;;;;;;;5038076;27;20028;-74
2023/03/20 07:06:58;;;;;;;8.57;3.28;;;;;;;;;;5051330;28;20062;-74
2023/03/20 07:09:25;;;;;;;5.05;2.85;;;;;;;;;;5051815;28;20252;-75
2023/03/20 07:11:52;;;;;;;3.50;2.88;;;;;;;;;;5071074;27;20136;-75
2023/03/20 07:14:18;;;;;;;6.60;2.78;;;;;;;;;;5058962;28;20029;-73
2023/03/20 07:16:44;;;;;;;6.13;2.50;;;;;;;;;;5058209;28;20198;-73
2023/03/20 07:19:12;;;;;;;5.38;2.50;;;;;;;;;;5056914;28;20556;-75
2023/03/20 07:21:41;;;;;;;5.13;2.20;;;;;;;;;;5051411;28;20024;-71
2023/03/20 07:24:07;;;;;;;4.47;2.38;;;;;;;;;;5051683;28;20017;-74
2023/03/20 07:26:33;;;;;;;4.15;2.70;;;;;;;;;;5033100;28;20029;-74
2023/03/20 07:28:59;;;;;;;3.50;2.78;;;;;;;;;;5077833;27;20019;-73
2023/03/20 07:31:27;;;;;;;4.10;2.80;;;;;;;;;;5156005;27;20023;-74
2023/03/20 07:33:54;;;;;;;11.20;2.67;;;;;;;;;;5156039;27;20033;-75
2023/03/20 07:36:20;;;;;;;3.65;2.60;;;;;;;;;;5136952;27;20019;-75
2023/03/20 07:38:47;;;;;;;5.38;2.88;;;;;;;;;;5136453;27;20030;-76
2023/03/20 07:41:13;;;;;;;3.88;2.58;;;;;;;;;;5155635;27;20350;-76
2023/03/20 07:43:39;;;;;;;3.72;2.60;;;;;;;;;;5155495;27;20395;-76
2023/03/20 07:46:06;;;;;;;5.28;3.10;;;;;;;;;;5155028;27;20019;-76
2023/03/20 07:48:32;;;;;;;4.55;2.85;;;;;;;;;;5154862;27;20015;-76
2023/03/20 07:50:58;;;;;;;2.58;2.10;;;;;;;;;;5155208;27;20018;-75
2023/03/20 07:53:24;;;;;;;4.57;2.90;;;;;;;;;;5053779;27;20397;-76
2023/03/20 07:55:50;;;;;;;3.05;2.55;;;;;;;;;;5046351;28;20021;-77
2023/03/20 07:58:16;;;;;;;7.03;2.63;;;;;;;;;;5075235;27;20047;-76
2023/03/20 08:00:42;;;;;;;5.05;2.72;;;;;;;;;;5049641;28;20017;-75
2023/03/20 08:03:08;;;;;;;5.50;3.20;;;;;;;;;;5049667;28;20035;-75
2023/03/20 08:05:34;;;;;;;6.57;3.35;;;;;;;;;;5030032;28;20021;-75
2023/03/20 08:08:00;;;;;;;7.95;4.72;;;;;;;;;;5039022;28;20386;-74
2023/03/20 08:10:27;;;;;;;5.60;3.90;;;;;;;;;;5048043;28;20025;-73
2023/03/20 08:12:53;;;;;;;7.78;4.40;;;;;;;;;;5049253;28;20378;-74
2023/03/20 08:15:19;;;;;;;5.93;4.15;;;;;;;;;;5049373;28;20032;-73
2023/03/20 08:17:45;;;;;;;11.38;4.70;;;;;;;;;;5048444;28;20328;-74
2023/03/20 08:20:13;;;;;;;5.28;4.07;;;;;;;;;;5048771;28;20121;-74
2023/03/20 08:22:39;;;;;;;6.50;4.05;;;;;;;;;;5048577;27;20051;-74
2023/03/20 08:25:07;;;;;;;10.60;4.93;;;;;;;;;;5047559;28;20033;-74
2023/03/20 08:27:33;;;;;;;4.85;4.05;;;;;;;;;;5047591;28;20470;-74
2023/03/20 08:29:59;;;;;;;10.25;4.45;;;;;;;;;;5047932;28;20056;-75
2023/03/20 08:32:25;;;;;;;6.32;4.57;;;;;;;;;;5048003;28;20491;-75
2023/03/20 08:34:53;;;;;;;7.65;4.28;;;;;;;;;;5048091;28;20021;-75
2023/03/20 08:37:19;;;;;;;7.80;4.80;;;;;;;;;;5048976;28;20032;-75
2023/03/20 08:39:45;;;;;;;8.65;4.95;;;;;;;;;;5049565;28;20032;-74
2023/03/20 08:42:12;;;;;;;4.82;3.95;;;;;;;;;;5049817;28;20038;-74
2023/03/20 08:44:38;;;;;;;11.50;6.03;;;;;;;;;;5049648;28;20479;-75
2023/03/20 08:47:06;;;;;;;9.50;5.90;;;;;;;;;;5064470;27;20022;-72
2023/03/20 08:49:32;;;;;;;11.80;6.43;;;;;;;;;;5123140;27;20058;-74
2023/03/20 08:51:59;;;;;;;7.43;6.03;;;;;;;;;;5153113;27;20105;-74
2023/03/20 08:54:25;;;;;;;6.57;4.95;;;;;;;;;;5154490;27;20464;-74
2023/03/20 08:56:51;;;;;;;6.07;4.97;;;;;;;;;;5154234;27;20091;-72
2023/03/20 08:59:18;;;;;;;7.57;5.20;;;;;;;;;;5153762;27;20071;-74
2023/03/20 09:01:44;;;;;;;9.43;6.57;;;;;;;;;;5154024;27;20544;-73
2023/03/20 09:04:10;;;;;;;9.32;7.28;;;;;;;;;;5135410;27;20496;-74
2023/03/20 09:06:37;;;;;;;13.70;7.90;;;;;;;;;;5153460;27;20071;-75
2023/03/20 09:09:03;;;;;;;10.63;7.40;;;;;;;;;;5153852;27;20481;-74
2023/03/20 09:11:29;;;;;;;12.10;7.57;;;;;;;;;;5153887;27;20454;-75
2023/03/20 09:13:55;;;;;;;15.57;9.82;;;;;;;;;;5153868;27;20109;-74
2023/03/20 09:16:21;;;;;;;15.73;11.38;;;;;;;;;;5153651;27;20117;-74
2023/03/20 09:18:47;;;;;;;19.65;13.68;;;;;;;;;;5154126;27;20110;-75
2023/03/20 09:21:13;;;;;;;23.30;15.52;;;;;;;;;;5153790;27;20070;-74
2023/03/20 09:23:39;;;;;;;21.83;14.85;;;;;;;;;;5154065;27;20093;-73
2023/03/20 09:26:06;;;;;;;17.60;12.45;;;;;;;;;;5154259;27;20106;-74
2023/03/20 09:28:32;;;;;;;18.88;11.00;;;;;;;;;;5153807;27;20483;-77
2023/03/20 09:30:59;;;;;;;17.27;10.98;;;;;;;;;;5132307;27;20052;-76
2023/03/20 09:33:25;;;;;;;14.35;9.82;;;;;;;;;;5107957;27;20022;-74
2023/03/20 09:35:51;;;;;;;13.68;10.68;;;;;;;;;;5154272;27;20430;-74
2023/03/20 09:38:17;;;;;;;17.55;11.13;;;;;;;;;;5153887;27;20079;-75
2023/03/20 09:40:51;;;;;;;13.85;10.52;;;;;;;;;;5074764;27;20071;-75
2023/03/20 09:43:35;;;;;;;19.92;11.93;;;;;;;;;;5051677;28;20022;-75
2023/03/20 09:46:07;;;;;;;13.60;10.50;;;;;;;;;;5050813;28;20111;-76
2023/03/20 09:48:40;;;;;;;15.35;10.27;;;;;;;;;;5100751;27;20026;-74
2023/03/20 09:51:30;;;;;;;15.80;10.20;;;;;;;;;;5136187;27;20023;-75
2023/03/20 09:53:59;;;;;;;14.75;11.60;;;;;;;;;;5153720;27;20090;-75
2023/03/20 09:56:26;;;;;;;16.55;10.63;;;;;;;;;;5152429;27;20399;-77
2023/03/20 09:58:56;;;;;;;11.68;9.05;;;;;;;;;;5152331;27;20023;-75
2023/03/20 10:01:24;;;;;;;13.73;9.32;;;;;;;;;;5154066;27;20079;-76
2023/03/20 10:03:50;;;;;;;13.75;9.82;;;;;;;;;;5153006;27;20046;-75
2023/03/20 10:06:17;;;;;;;14.88;9.98;;;;;;;;;;5135397;27;20445;-74
2023/03/20 10:08:44;;;;;;;14.70;11.00;;;;;;;;;;5153487;27;20027;-77
2023/03/20 10:11:22;;;;;;;17.55;11.50;;;;;;;;;;5153786;27;20400;-74
2023/03/20 10:13:57;;;;;;;18.00;11.98;;;;;;;;;;5153417;27;20019;-74
2023/03/20 10:16:36;;;;;;;18.77;11.80;;;;;;;;;;5095906;27;20032;-75
2023/03/20 10:19:21;;;;;;;17.85;11.07;;;;;;;;;;5046204;28;20123;-75
2023/03/20 10:22:10;;;;;;;16.35;12.13;;;;;;;;;;5046347;28;20108;-75
2023/03/20 10:24:39;;;;;;;17.27;12.68;;;;;;;;;;5051789;28;20112;-75
2023/03/20 10:27:11;;;;;;;19.58;13.63;;;;;;;;;;5047702;28;20453;-75
2023/03/20 10:29:42;;;;;;;17.27;12.77;;;;;;;;;;5048184;28;20076;-75
2023/03/20 10:32:16;;;;;;;19.67;13.07;;;;;;;;;;5047987;28;20036;-75
2023/03/20 10:34:42;;;;;;;14.85;12.20;;;;;;;;;;5048050;28;20036;-75
2023/03/20 10:37:17;;;;;;;17.83;12.57;;;;;;;;;;5047887;28;20033;-75
2023/03/20 10:39:52;;;;;;;15.25;11.82;;;;;;;;;;5047974;28;20089;-74
2023/03/20 10:42:29;;;;;;;16.85;12.02;;;;;;;;;;5047975;28;20021;-74
2023/03/20 10:45:07;;;;;;;17.00;12.70;;;;;;;;;;5048221;28;20077;-75
2023/03/20 10:47:36;;;;;;;17.27;13.38;;;;;;;;;;5047531;28;20025;-74
2023/03/20 10:50:06;;;;;;;18.20;14.30;;;;;;;;;;5050364;28;20025;-75
2023/03/20 10:52:35;;;;;;;20.65;14.63;;;;;;;;;;5051145;28;20069;-75
2023/03/20 10:55:20;;;;;;;17.10;14.30;;;;;;;;;;5051145;28;20056;-75
2023/03/20 10:58:07;;;;;;;19.60;13.52;;;;;;;;;;5051365;28;20048;-75
2023/03/20 11:00:33;;;;;;;18.92;13.90;;;;;;;;;;5057312;28;20537;-75
2023/03/20 11:02:59;;;;;;;17.27;14.27;;;;;;;;;;5051465;28;20406;-74
2023/03/20 11:05:30;;;;;;;19.90;14.88;;;;;;;;;;5051345;28;20022;-74
2023/03/20 11:08:07;;;;;;;19.52;15.30;;;;;;;;;;5049847;28;20545;-74
2023/03/20 11:10:35;;;;;;;20.60;15.07;;;;;;;;;;5051142;28;20073;-75
2023/03/20 11:13:24;;;;;;;21.38;16.15;;;;;;;;;;5050946;28;20418;-74
2023/03/20 11:15:51;;;;;;;21.73;14.85;;;;;;;;;;5055314;27;20040;-75
2023/03/20 11:18:18;;;;;;;22.00;15.80;;;;;;;;;;5050638;28;20028;-74
2023/03/20 11:20:50;;;;;;;22.63;16.05;;;;;;;;;;5050716;28;20505;-77
2023/03/20 11:23:17;;;;;;;19.55;15.40;;;;;;;;;;5050627;28;20108;-75
2023/03/20 11:25:56;;;;;;;24.73;16.95;;;;;;;;;;5050789;28;20493;-77
2023/03/20 11:28:39;;;;;;;18.50;15.02;;;;;;;;;;5051457;28;20017;-75
2023/03/20 11:31:05;;;;;;;22.88;16.45;;;;;;;;;;5051044;28;20036;-75
2023/03/20 11:33:33;;;;;;;20.23;15.38;;;;;;;;;;5050439;28;20028;-75
2023/03/20 11:35:59;;;;;;;24.10;17.25;;;;;;;;;;5050507;28;20025;-74
2023/03/20 11:38:25;;;;;;;27.77;17.90;;;;;;;;;;5050329;28;20028;-76
2023/03/20 11:40:52;;;;;;;23.90;16.60;;;;;;;;;;5050437;28;20150;-75
2023/03/20 11:43:20;;;;;;;24.88;16.67;;;;;;;;;;5050450;28;20036;-75
2023/03/20 11:45:57;;;;;;;21.30;15.55;;;;;;;;;;5050928;28;20048;-75
2023/03/20 11:48:24;;;;;;;21.75;16.00;;;;;;;;;;5049797;28;20104;-76
2023/03/20 11:51:00;;;;;;;19.33;15.05;;;;;;;;;;5050960;28;20398;-74
2023/03/20 11:53:35;;;;;;;20.67;15.07;;;;;;;;;;5051448;28;20025;-76
2023/03/20 11:56:01;;;;;;;19.77;14.93;;;;;;;;;;5052191;28;20402;-75
2023/03/20 11:58:28;;;;;;;18.17;14.20;;;;;;;;;;5051179;28;20021;-74
2023/03/20 12:00:54;;;;;;;17.85;13.48;;;;;;;;;;5049920;28;20053;-76
2023/03/20 12:03:40;;;;;;;19.10;13.82;;;;;;;;;;5051147;28;20025;-74
2023/03/20 12:06:07;;;;;;;22.33;14.63;;;;;;;;;;5051756;28;20045;-74
2023/03/20 12:08:35;;;;;;;18.90;13.85;;;;;;;;;;5051617;28;20017;-74
2023/03/20 12:11:07;;;;;;;22.27;15.30;;;;;;;;;;5051669;28;20089;-75
2023/03/20 12:13:35;;;;;;;17.67;13.70;;;;;;;;;;5051806;28;20048;-74
2023/03/20 12:16:05;;;;;;;19.70;13.82;;;;;;;;;;5051618;28;20036;-76
2023/03/20 12:18:35;;;;;;;23.30;14.93;;;;;;;;;;5049132;28;20044;-75
2023/03/20 12:21:01;;;;;;;21.02;15.10;;;;;;;;;;5050365;28;20077;-75
2023/03/20 12:23:31;;;;;;;21.90;15.15;;;;;;;;;;5050430;28;20294;-75
2023/03/20 12:26:06;;;;;;;23.02;15.95;;;;;;;;;;5050696;28;20623;-74
2023/03/20 12:28:51;;;;;;;22.70;16.20;;;;;;;;;;5049479;28;20044;-75
2023/03/20 12:31:20;;;;;;;22.13;16.33;;;;;;;;;;5050365;28;20500;-75
2023/03/20 12:33:46;;;;;;;23.30;16.38;;;;;;;;;;5050546;28;20033;-74
2023/03/20 12:36:17;;;;;;;24.48;16.77;;;;;;;;;;5048937;28;20017;-74
2023/03/20 12:38:43;;;;;;;24.08;17.27;;;;;;;;;;5050285;28;20052;-73
2023/03/20 12:41:20;;;;;;;27.48;19.88;;;;;;;;;;5050601;28;20021;-76
2023/03/20 12:44:01;;;;;;;30.15;20.58;;;;;;;;;;5033495;28;20029;-75
2023/03/20 12:46:36;;;;;;;28.10;19.95;;;;;;;;;;5056273;28;20025;-75
2023/03/20 12:49:05;;;;;;;29.23;19.85;;;;;;;;;;5059344;28;20483;-75
2023/03/20 12:51:40;;;;;;;27.90;19.73;;;;;;;;;;5051588;28;20025;-74
2023/03/20 12:54:09;;;;;;;28.92;19.02;;;;;;;;;;5049754;28;20036;-75
2023/03/20 12:56:54;;;;;;;26.73;18.08;;;;;;;;;;5049516;28;20029;-72
2023/03/20 12:59:26;;;;;;;25.02;17.90;;;;;;;;;;5049116;28;20475;-75
2023/03/20 13:01:56;;;;;;;23.17;16.40;;;;;;;;;;5049858;28;20032;-75
2023/03/20 13:04:22;;;;;;;21.95;16.90;;;;;;;;;;5049645;28;20020;-76
2023/03/20 13:06:56;;;;;;;22.48;15.65;;;;;;;;;;5049203;28;20025;-74
2023/03/20 13:09:41;;;;;;;23.33;15.98;;;;;;;;;;5049293;28;20021;-75
2023/03/20 13:12:19;;;;;;;23.92;16.30;;;;;;;;;;5048750;28;20032;-75
2023/03/20 13:14:48;;;;;;;22.77;15.77;;;;;;;;;;5049323;28;20031;-74
2023/03/20 13:17:29;;;;;;;21.75;15.93;;;;;;;;;;5047816;28;20029;-75
2023/03/20 13:20:05;;;;;;;24.75;17.33;;;;;;;;;;5048019;28;20040;-75
2023/03/20 13:22:31;;;;;;;27.27;17.17;;;;;;;;;;5049275;28;20021;-74
2023/03/20 13:25:16;;;;;;;23.45;17.20;;;;;;;;;;5049420;28;20073;-74
2023/03/20 13:27:45;;;;;;;25.85;17.55;;;;;;;;;;5048692;28;20032;-74
2023/03/20 13:30:23;;;;;;;26.38;19.38;;;;;;;;;;5049095;28;20025;-75
2023/03/20 13:33:07;;;;;;;31.40;22.42;;;;;;;;;;5049492;28;20028;-75
2023/03/20 13:35:34;;;;;;;35.22;25.42;;;;;;;;;;5049304;28;20033;-74
2023/03/20 13:38:02;;;;;;;32.95;25.10;;;;;;;;;;5048762;28;20025;-74
2023/03/20 13:40:29;;;;;;;35.30;24.48;;;;;;;;;;5049010;28;20124;-75
2023/03/20 13:43:14;;;;;;;33.90;24.20;;;;;;;;;;5049168;28;20023;-76
2023/03/20 13:45:41;;;;;;;34.60;24.40;;;;;;;;;;5049261;28;20029;-75
2023/03/20 13:48:19;;;;;;;37.05;24.38;;;;;;;;;;5048838;28;20029;-76
2023/03/20 13:50:49;;;;;;;31.48;23.83;;;;;;;;;;5048937;28;20025;-75
2023/03/20 13:53:27;;;;;;;35.55;25.60;;;;;;;;;;5049368;28;20036;-76
2023/03/20 13:56:03;;;;;;;33.38;23.90;;;;;;;;;;5050439;28;20123;-74
2023/03/20 13:58:29;;;;;;;33.70;24.02;;;;;;;;;;5050910;28;20029;-76
2023/03/20 14:01:06;;;;;;;38.75;25.48;;;;;;;;;;5053295;28;20025;-75
2023/03/20 14:03:34;;;;;;;37.10;27.02;;;;;;;;;;5052981;28;20017;-75
2023/03/20 14:06:00;;;;;;;36.50;25.38;;;;;;;;;;5051980;28;20021;-75
2023/03/20 14:08:32;;;;;;;39.72;24.80;;;;;;;;;;5050549;28;20030;-76
2023/03/20 14:11:05;;;;;;;36.50;24.95;;;;;;;;;;5049723;28;20032;-77
2023/03/20 14:13:32;;;;;;;36.53;25.08;;;;;;;;;;5051632;28;20112;-76
2023/03/20 14:16:01;;;;;;;32.53;23.70;;;;;;;;;;5050568;28;20033;-78
2023/03/20 14:18:29;;;;;;;35.78;23.63;;;;;;;;;;5050392;28;20494;-76
2023/03/20 14:20:59;;;;;;;37.33;26.60;;;;;;;;;;5050680;28;20037;-76
2023/03/20 14:23:39;;;;;;;36.30;24.70;;;;;;;;;;5053763;28;20052;-77
2023/03/20 14:26:09;;;;;;;40.63;24.85;;;;;;;;;;5067132;28;20045;-76
2023/03/20 14:28:55;;;;;;;33.97;24.38;;;;;;;;;;5062888;28;20053;-75
2023/03/20 14:31:23;;;;;;;35.63;25.58;;;;;;;;;;5045924;28;20116;-76
2023/03/20 14:33:54;;;;;;;35.80;25.58;;;;;;;;;;5034881;28;20035;-76
2023/03/20 14:36:26;;;;;;;43.88;29.98;;;;;;;;;;5017640;28;20510;-73
2023/03/20 14:38:57;;;;;;;60.13;35.95;;;;;;;;;;5034031;28;20063;-77
2023/03/20 14:41:35;;;;;;;73.22;41.22;;;;;;;;;;5031008;28;20021;-76